Bits / 2021 / Running Data

0 miles
this month
211.8 miles
this year


Date Distance (miles) Duration Average Pace Heart Rate Climb
2021-03-13 13.11 2:07:43 9:44 153 901
2021-03-11 4.02 43:16 10:46 141 415
2021-03-10 7.01 1:04:42 9:13 157 717
2021-03-09 4.02 43:53 10:55 142 410
2021-03-06 16.01 3:08:37 11:47 145 950
2021-03-04 4.01 42:41 10:39 143 424
2021-03-03 7.02 1:18:37 11:12 143 729
2021-03-02 4.02 43:40 10:52 142 426
2021-02-27 14.01 2:57:52 12:42 144 973
2021-02-25 4.01 44:00 10:58 140 414
2021-02-24 7.01 1:15:28 10:46 145 709
2021-02-23 4.02 44:37 11:06 146 421
2021-02-20 9.03 1:47:23 11:54 149 637
2021-02-18 3.01 32:38 10:50 143 331
2021-02-17 5.55 1:06:46 12:02 152 311
2021-02-16 3.01 31:41 10:32 147 322
2021-02-10 6.08 1:09:39 11:27 140 613
2021-02-09 3.03 34:20 11:19 144 323
2021-02-06 11.01 2:18:42 12:36 147 833
2021-02-04 3.14 32:55 10:30 153 326
2021-02-03 6.02 1:04:08 10:39 148 612
2021-02-02 3.02 33:30 11:06 145 316
2021-01-30 7.38 1:27:45 11:54 149 578
2021-01-27 5.01 57:32 11:29 144 510
2021-01-26 3.11 34:22 11:03 141 333
2021-01-23 9.07 1:51:56 12:21 145 744
2021-01-21 3.02 35:02 11:36 143 312
2021-01-20 5.02 53:36 10:41 145 505
2021-01-19 3.02 31:41 10:29 147 331
2021-01-16 8.01 1:41:44 12:42 148 828
2021-01-14 2.05 21:31 10:29 147 223
2021-01-13 3.01 29:18 9:43 152 307
2021-01-12 3.12 33:53 10:52 143 325
2021-01-09 8.11 1:45:38 13:01 146 692
2021-01-07 1.63 16:01 9:48 150 185
2021-01-06 3.02 34:35 11:26 144 337
2021-01-02 6.02 1:19:10 13:09 146 671